createdAt,value
2018-02-25T00:01:54.669Z,101366.67
2018-02-25T00:04:22.090Z,101367.11
2018-02-25T00:06:49.515Z,101369.61
2018-02-25T00:09:16.931Z,101365.91
2018-02-25T00:11:44.357Z,101364.92
2018-02-25T00:14:11.780Z,101370.78
2018-02-25T00:16:39.194Z,101373.39
2018-02-25T00:19:06.626Z,101379.08
2018-02-25T00:21:34.043Z,101375.42
2018-02-25T00:24:01.462Z,101375.62
2018-02-25T00:26:28.890Z,101375.00
2018-02-25T00:28:56.303Z,101381.05
2018-02-25T00:31:23.730Z,101386.80
2018-02-25T00:33:51.191Z,101379.17
2018-02-25T00:36:18.626Z,101381.48
2018-02-25T00:38:46.047Z,101384.83
2018-02-25T00:41:13.481Z,101396.95
2018-02-25T00:43:40.902Z,101394.89
2018-02-25T00:46:08.328Z,101397.38
2018-02-25T00:48:35.758Z,101405.31
2018-02-25T00:51:03.180Z,101401.75
2018-02-25T00:53:30.598Z,101409.31
2018-02-25T00:55:58.051Z,101406.64
2018-02-25T00:58:25.466Z,101405.25
2018-02-25T01:00:52.883Z,101404.30
2018-02-25T01:03:20.314Z,101413.81
2018-02-25T01:05:47.737Z,101405.64
2018-02-25T01:08:15.158Z,101414.11
2018-02-25T01:10:42.587Z,101417.73
2018-02-25T01:13:10.006Z,101411.27
2018-02-25T01:15:37.422Z,101413.08
2018-02-25T01:18:04.871Z,101412.16
2018-02-25T01:20:32.293Z,101415.70
2018-02-25T01:22:59.702Z,101410.83
2018-02-25T01:25:27.133Z,101413.39
2018-02-25T01:27:54.546Z,101415.63
2018-02-25T01:30:21.971Z,101412.94
2018-02-25T01:32:49.410Z,101414.86
2018-02-25T01:35:16.833Z,101409.30
2018-02-25T01:37:44.247Z,101415.11
2018-02-25T01:40:11.683Z,101417.52
2018-02-25T01:42:39.112Z,101418.64
2018-02-25T01:45:06.529Z,101416.97
2018-02-25T01:47:33.962Z,101411.49
2018-02-25T01:50:01.374Z,101413.20
2018-02-25T01:52:28.794Z,101410.23
2018-02-25T01:54:56.222Z,101409.59
2018-02-25T01:57:23.659Z,101410.67
2018-02-25T01:59:51.076Z,101412.43
2018-02-25T02:02:18.510Z,101417.84
2018-02-25T02:04:45.928Z,101424.98
2018-02-25T02:07:13.343Z,101417.48
2018-02-25T02:09:40.770Z,101414.27
2018-02-25T02:12:08.184Z,101412.23
2018-02-25T02:14:35.597Z,101412.92
2018-02-25T02:17:03.043Z,101413.52
2018-02-25T02:19:30.449Z,101409.02
2018-02-25T02:21:57.865Z,101414.66
2018-02-25T02:24:25.318Z,101416.98
2018-02-25T02:26:52.718Z,101421.01
2018-02-25T02:29:20.140Z,101417.34
2018-02-25T02:31:47.571Z,101412.87
2018-02-25T02:34:14.990Z,101421.12
2018-02-25T02:36:42.416Z,101420.47
2018-02-25T02:39:10.166Z,101423.19
2018-02-25T02:41:37.583Z,101419.11
2018-02-25T02:44:05.032Z,101423.67
2018-02-25T02:46:32.466Z,101423.67
2018-02-25T02:48:59.882Z,101430.02
2018-02-25T02:51:27.298Z,101435.18
2018-02-25T02:53:54.725Z,101437.75
2018-02-25T02:56:22.151Z,101435.86
2018-02-25T02:58:49.570Z,101444.13
2018-02-25T03:01:17.003Z,101444.23
2018-02-25T03:03:44.419Z,101443.92
2018-02-25T03:06:11.835Z,101443.89
2018-02-25T03:08:39.274Z,101438.59
2018-02-25T03:11:06.690Z,101444.06
2018-02-25T03:13:34.110Z,101442.14
2018-02-25T03:16:01.546Z,101441.96
2018-02-25T03:18:28.962Z,101439.16
2018-02-25T03:20:56.390Z,101439.67
2018-02-25T03:23:23.834Z,101444.94
2018-02-25T03:25:51.258Z,101454.48
2018-02-25T03:28:18.677Z,101443.77
2018-02-25T03:30:46.111Z,101444.94
2018-02-25T03:33:13.532Z,101438.34
2018-02-25T03:35:40.952Z,101440.52
2018-02-25T03:38:08.379Z,101440.05
2018-02-25T03:40:35.790Z,101434.28
2018-02-25T03:43:03.201Z,101446.72
2018-02-25T03:45:30.634Z,101446.42
2018-02-25T03:47:58.047Z,101444.09
2018-02-25T03:50:25.470Z,101450.63
2018-02-25T03:52:52.905Z,101456.28
2018-02-25T03:55:20.330Z,101455.68
2018-02-25T03:57:47.738Z,101459.45
2018-02-25T04:00:15.162Z,101454.08
2018-02-25T04:02:42.582Z,101463.89
2018-02-25T04:05:09.998Z,101468.47
2018-02-25T04:07:37.438Z,101466.11
2018-02-25T04:10:04.873Z,101470.23
2018-02-25T04:12:32.279Z,101472.67
2018-02-25T04:14:59.710Z,101472.41
2018-02-25T04:17:27.126Z,101477.30
2018-02-25T04:19:54.543Z,101479.50
2018-02-25T04:22:21.979Z,101480.42
2018-02-25T04:24:49.390Z,101481.55
2018-02-25T04:27:17.330Z,101488.69
2018-02-25T04:29:44.758Z,101497.74
2018-02-25T04:32:12.180Z,101497.74
2018-02-25T04:34:39.598Z,101494.58
2018-02-25T04:37:07.034Z,101500.71
2018-02-25T04:39:34.458Z,101501.78
2018-02-25T04:42:01.882Z,101505.80
2018-02-25T04:44:29.326Z,101502.75
2018-02-25T04:46:56.750Z,101508.16
2018-02-25T04:49:24.170Z,101512.06
2018-02-25T04:51:51.594Z,101518.77
2018-02-25T04:54:19.011Z,101520.42
2018-02-25T04:56:46.441Z,101519.37
2018-02-25T04:59:13.878Z,101525.88
2018-02-25T05:01:41.291Z,101525.00
2018-02-25T05:04:08.714Z,101523.52
2018-02-25T05:06:36.141Z,101529.90
2018-02-25T05:09:03.567Z,101527.37
2018-02-25T05:11:30.994Z,101522.47
2018-02-25T05:13:58.436Z,101534.05
2018-02-25T05:16:25.866Z,101547.13
2018-02-25T05:18:53.283Z,101544.16
2018-02-25T05:21:20.715Z,101550.02
2018-02-25T05:23:48.130Z,101552.27
2018-02-25T05:26:15.541Z,101551.97
2018-02-25T05:28:42.975Z,101559.47
2018-02-25T05:31:10.450Z,101559.09
2018-02-25T05:33:37.866Z,101558.20
2018-02-25T05:36:05.294Z,101562.59
2018-02-25T05:38:32.709Z,101557.16
2018-02-25T05:41:00.126Z,101559.02
2018-02-25T05:43:31.425Z,101555.44
2018-02-25T05:45:58.842Z,101549.31
2018-02-25T05:48:26.270Z,101548.81
2018-02-25T05:50:53.697Z,101556.91
2018-02-25T05:53:21.112Z,101559.81
2018-02-25T05:55:48.534Z,101560.44
2018-02-25T05:58:15.961Z,101556.72
2018-02-25T06:00:43.368Z,101554.36
2018-02-25T06:03:10.777Z,101556.96
2018-02-25T06:05:38.218Z,101550.53
2018-02-25T06:08:05.636Z,101548.23
2018-02-25T06:10:33.059Z,101549.09
2018-02-25T06:13:00.483Z,101545.80
2018-02-25T06:15:27.897Z,101546.80
2018-02-25T06:17:55.334Z,101550.71
2018-02-25T06:20:22.766Z,101551.48
2018-02-25T06:22:50.186Z,101545.48
2018-02-25T06:25:17.640Z,101554.35
2018-02-25T06:27:45.098Z,101555.30
2018-02-25T06:30:20.330Z,101552.85
2018-02-25T06:32:47.762Z,101550.51
2018-02-25T06:35:15.191Z,101546.44
2018-02-25T06:37:42.606Z,101551.56
2018-02-25T06:40:13.175Z,101554.86
2018-02-25T06:42:40.590Z,101555.64
2018-02-25T06:45:08.006Z,101565.39
2018-02-25T06:47:35.459Z,101558.39
2018-02-25T06:50:02.886Z,101563.04
2018-02-25T06:52:30.298Z,101569.72
2018-02-25T06:54:57.734Z,101566.38
2018-02-25T06:57:25.150Z,101568.93
2018-02-25T06:59:52.566Z,101574.44
2018-02-25T07:02:20.003Z,101567.25
2018-02-25T07:04:47.422Z,101571.48
2018-02-25T07:07:14.838Z,101570.00
2018-02-25T07:09:42.273Z,101578.94
2018-02-25T07:12:09.695Z,101580.48
2018-02-25T07:14:37.120Z,101588.40
2018-02-25T07:17:04.554Z,101592.77
2018-02-25T07:19:31.967Z,101591.02
2018-02-25T07:21:59.386Z,101595.38
2018-02-25T07:24:26.821Z,101597.03
2018-02-25T07:26:54.272Z,101590.77
2018-02-25T07:29:21.658Z,101597.66
2018-02-25T07:31:49.119Z,101597.66
2018-02-25T07:34:16.539Z,101600.20
2018-02-25T07:36:43.974Z,101600.82
2018-02-25T07:39:11.426Z,101602.57
2018-02-25T07:41:38.848Z,101604.23
2018-02-25T07:44:06.267Z,101606.33
2018-02-25T07:46:33.695Z,101597.40
2018-02-25T07:49:01.161Z,101603.37
2018-02-25T07:51:28.595Z,101603.75
2018-02-25T07:53:56.046Z,101607.28
2018-02-25T07:56:23.465Z,101615.14
2018-02-25T07:58:50.897Z,101607.77
2018-02-25T08:01:18.365Z,101614.22
2018-02-25T08:04:02.237Z,101614.53
2018-02-25T08:06:29.669Z,101624.62
2018-02-25T08:08:57.094Z,101618.22
2018-02-25T08:11:24.523Z,101616.60
2018-02-25T08:13:51.965Z,101623.55
2018-02-25T08:16:19.386Z,101617.66
2018-02-25T08:18:46.808Z,101616.23
2018-02-25T08:21:14.279Z,101615.73
2018-02-25T08:23:41.663Z,101617.57
2018-02-25T08:26:09.086Z,101615.36
2018-02-25T08:28:36.519Z,101617.86
2018-02-25T08:31:03.941Z,101619.59
2018-02-25T08:33:31.366Z,101629.30
2018-02-25T08:35:58.801Z,101620.50
2018-02-25T08:38:26.230Z,101621.45
2018-02-25T08:40:53.647Z,101615.83
2018-02-25T08:43:21.082Z,101615.48
2018-02-25T08:45:48.498Z,101617.26
2018-02-25T08:48:15.938Z,101615.84
2018-02-25T08:50:43.371Z,101622.70
2018-02-25T08:53:10.810Z,101626.16
2018-02-25T08:55:38.238Z,101621.73
2018-02-25T08:58:05.678Z,101620.17
2018-02-25T09:00:33.101Z,101622.00
2018-02-25T09:03:00.523Z,101628.26
2018-02-25T09:05:27.958Z,101626.62
2018-02-25T09:07:55.382Z,101626.06
2018-02-25T09:10:22.798Z,101628.53
2018-02-25T09:12:50.259Z,101633.33
2018-02-25T09:15:17.689Z,101633.37
2018-02-25T09:17:45.114Z,101637.52
2018-02-25T09:20:12.552Z,101636.81
2018-02-25T09:22:39.975Z,101629.56
2018-02-25T09:25:07.400Z,101628.55
2018-02-25T09:27:34.874Z,101631.27
2018-02-25T09:30:02.307Z,101633.63
2018-02-25T09:32:29.778Z,101631.05
2018-02-25T09:34:57.231Z,101632.53
2018-02-25T09:37:24.623Z,101626.46
2018-02-25T09:39:52.039Z,101624.06
2018-02-25T09:42:19.466Z,101627.66
2018-02-25T09:44:46.881Z,101620.80
2018-02-25T09:47:14.298Z,101621.55
2018-02-25T09:49:41.740Z,101612.75
2018-02-25T09:52:09.162Z,101607.99
2018-02-25T09:54:36.957Z,101610.31
2018-02-25T09:57:04.382Z,101603.67
2018-02-25T09:59:31.808Z,101606.19
2018-02-25T10:01:59.281Z,101602.21
2018-02-25T10:04:26.730Z,101604.57
2018-02-25T10:06:54.154Z,101602.54
2018-02-25T10:09:21.576Z,101600.27
2018-02-25T10:11:49.078Z,101593.52
2018-02-25T10:14:16.952Z,101591.98
2018-02-25T10:16:44.390Z,101600.86
2018-02-25T10:19:11.844Z,101606.92
2018-02-25T10:21:39.268Z,101592.81
2018-02-25T10:24:06.702Z,101596.06
2018-02-25T10:26:34.147Z,101589.23
2018-02-25T10:29:01.573Z,101587.25
2018-02-25T10:31:28.999Z,101585.72
2018-02-25T10:33:56.459Z,101574.52
2018-02-25T10:36:23.887Z,101578.60
2018-02-25T10:38:51.318Z,101572.37
2018-02-25T10:41:18.756Z,101573.20
2018-02-25T10:43:46.192Z,101579.20
2018-02-25T10:46:13.619Z,101574.02
2018-02-25T10:48:41.080Z,101568.30
2018-02-25T10:51:08.622Z,101572.08
2018-02-25T10:53:36.073Z,101575.56
2018-02-25T10:56:03.554Z,101574.02
2018-02-25T10:58:30.995Z,101574.84
2018-02-25T11:01:04.104Z,101569.70
2018-02-25T11:03:31.510Z,101568.93
2018-02-25T11:05:58.927Z,101565.00
2018-02-25T11:08:26.359Z,101554.90
2018-02-25T11:10:53.775Z,101555.48
2018-02-25T11:13:21.202Z,101550.48
2018-02-25T11:15:48.626Z,101553.88
2018-02-25T11:18:16.067Z,101550.47
2018-02-25T11:20:43.513Z,101545.58
2018-02-25T11:23:10.959Z,101538.66
2018-02-25T11:25:38.445Z,101536.47
2018-02-25T11:28:05.876Z,101532.25
2018-02-25T11:30:33.307Z,101534.11
2018-02-25T11:33:00.723Z,101527.33
2018-02-25T11:35:28.130Z,101525.77
2018-02-25T11:37:55.549Z,101513.38
2018-02-25T11:40:22.961Z,101513.60
2018-02-25T11:42:50.382Z,101505.69
2018-02-25T11:45:17.806Z,101505.80
2018-02-25T11:47:45.216Z,101502.77
2018-02-25T11:50:12.621Z,101498.00
2018-02-25T11:52:40.104Z,101490.37
2018-02-25T11:55:07.488Z,101488.86
2018-02-25T11:57:34.899Z,101484.00
2018-02-25T12:00:02.331Z,101469.34
2018-02-25T12:02:29.777Z,101490.30
2018-02-25T12:04:57.212Z,101480.22
2018-02-25T12:07:24.643Z,101465.70
2018-02-25T12:09:52.071Z,101467.50
2018-02-25T12:12:19.486Z,101471.19
2018-02-25T12:14:46.930Z,101473.95
2018-02-25T12:17:14.342Z,101463.97
2018-02-25T12:19:41.776Z,101462.84
2018-02-25T12:22:09.215Z,101456.23
2018-02-25T12:24:36.649Z,101454.30
2018-02-25T12:27:04.071Z,101453.42
2018-02-25T12:29:31.540Z,101452.73
2018-02-25T12:31:58.947Z,101445.91
2018-02-25T12:34:26.367Z,101444.86
2018-02-25T12:36:53.860Z,101444.94
2018-02-25T12:39:21.293Z,101440.30
2018-02-25T12:41:48.702Z,101427.19
2018-02-25T12:44:16.135Z,101431.69
2018-02-25T12:46:43.559Z,101431.67
2018-02-25T12:49:10.997Z,101431.05
2018-02-25T12:51:38.421Z,101431.01
2018-02-25T12:54:05.834Z,101419.55
2018-02-25T12:56:33.261Z,101426.02
2018-02-25T12:59:00.698Z,101418.88
2018-02-25T13:01:28.110Z,101424.50
2018-02-25T13:03:55.527Z,101419.05
2018-02-25T13:06:22.953Z,101413.41
2018-02-25T13:08:50.754Z,101411.66
2018-02-25T13:11:18.173Z,101391.34
2018-02-25T13:13:45.603Z,101407.29
2018-02-25T13:16:13.031Z,101406.13
2018-02-25T13:18:40.450Z,101402.17
2018-02-25T13:21:07.877Z,101399.81
2018-02-25T13:23:35.282Z,101399.32
2018-02-25T13:26:02.717Z,101395.20
2018-02-25T13:28:30.153Z,101389.80
2018-02-25T13:30:57.589Z,101386.75
2018-02-25T13:33:25.009Z,101386.41
2018-02-25T13:35:52.445Z,101389.48
2018-02-25T13:38:19.871Z,101371.84
2018-02-25T13:40:47.290Z,101379.51
2018-02-25T13:43:14.721Z,101375.52
2018-02-25T13:45:42.134Z,101378.88
2018-02-25T13:48:09.549Z,101377.02
2018-02-25T13:50:36.981Z,101371.25
2018-02-25T13:53:04.407Z,101376.91
2018-02-25T13:55:32.931Z,101372.06
2018-02-25T13:58:00.354Z,101379.64
2018-02-25T14:00:27.762Z,101378.73
2018-02-25T14:02:55.182Z,101378.88
2018-02-25T14:05:22.975Z,101371.79
2018-02-25T14:07:50.394Z,101357.23
2018-02-25T14:10:17.866Z,101372.68
2018-02-25T14:12:45.323Z,101364.41
2018-02-25T14:15:12.748Z,101367.17
2018-02-25T14:17:40.166Z,101364.91
2018-02-25T14:20:07.594Z,101364.02
2018-02-25T14:22:35.028Z,101356.32
2018-02-25T14:25:02.451Z,101352.81
2018-02-25T14:27:29.896Z,101353.70
2018-02-25T14:29:57.334Z,101355.22
2018-02-25T14:32:24.776Z,101358.14
2018-02-25T14:34:52.218Z,101358.02
2018-02-25T14:37:19.665Z,101335.81
2018-02-25T14:39:54.408Z,101344.63
2018-02-25T14:42:21.822Z,101349.47
2018-02-25T14:44:52.305Z,101350.94
2018-02-25T14:47:19.757Z,101356.73
2018-02-25T14:49:47.170Z,101353.48
2018-02-25T14:52:14.669Z,101341.63
2018-02-25T14:54:42.116Z,101350.90
2018-02-25T14:57:09.534Z,101348.86
2018-02-25T14:59:36.969Z,101348.05
2018-02-25T15:02:04.417Z,101342.68
2018-02-25T15:04:31.834Z,101339.52
2018-02-25T15:06:59.257Z,101346.34
2018-02-25T15:09:26.741Z,101346.20
2018-02-25T15:11:54.147Z,101347.29
2018-02-25T15:14:21.583Z,101339.56
2018-02-25T15:16:49.018Z,101341.48
2018-02-25T15:19:16.440Z,101336.73
2018-02-25T15:21:43.868Z,101337.42
2018-02-25T15:24:11.303Z,101333.95
2018-02-25T15:26:38.726Z,101337.89
2018-02-25T15:29:16.134Z,101328.03
2018-02-25T15:31:43.590Z,101330.66
2018-02-25T15:34:10.983Z,101328.48
2018-02-25T15:36:38.414Z,101328.48
2018-02-25T15:39:05.830Z,101324.63
2018-02-25T15:41:33.255Z,101334.98
2018-02-25T15:44:00.693Z,101327.97
2018-02-25T15:46:28.118Z,101329.35
2018-02-25T15:48:55.552Z,101336.83
2018-02-25T15:51:23.006Z,101329.59
2018-02-25T15:53:50.421Z,101340.04
2018-02-25T15:56:17.858Z,101335.73
2018-02-25T15:58:45.295Z,101340.56
2018-02-25T16:01:12.716Z,101349.84
2018-02-25T16:03:40.135Z,101352.16
2018-02-25T16:06:07.568Z,101360.41
2018-02-25T16:08:35.018Z,101357.37
2018-02-25T16:11:02.436Z,101362.44
2018-02-25T16:13:29.886Z,101369.31
2018-02-25T16:15:58.164Z,101368.19
2018-02-25T16:18:25.581Z,101363.65
2018-02-25T16:20:53.016Z,101356.87
2018-02-25T16:23:20.439Z,101363.88
2018-02-25T16:25:47.898Z,101363.49
2018-02-25T16:28:15.321Z,101361.45
2018-02-25T16:30:42.741Z,101364.16
2018-02-25T16:33:10.150Z,101358.69
2018-02-25T16:35:37.591Z,101355.94
2018-02-25T16:38:05.006Z,101368.66
2018-02-25T16:40:32.425Z,101374.73
2018-02-25T16:42:59.910Z,101374.47
2018-02-25T16:45:27.378Z,101375.84
2018-02-25T16:47:54.794Z,101369.20
2018-02-25T16:50:22.229Z,101379.39
2018-02-25T16:52:49.650Z,101377.89
2018-02-25T16:55:17.067Z,101380.20
2018-02-25T16:57:44.542Z,101375.38
2018-02-25T17:00:11.969Z,101388.47
2018-02-25T17:02:39.373Z,101387.72
2018-02-25T17:05:06.811Z,101389.72
2018-02-25T17:07:34.230Z,101387.47
2018-02-25T17:10:01.655Z,101388.59
2018-02-25T17:12:29.109Z,101392.16
2018-02-25T17:14:56.514Z,101397.98
2018-02-25T17:17:23.917Z,101393.36
2018-02-25T17:19:51.349Z,101393.07
2018-02-25T17:22:18.771Z,101402.23
2018-02-25T17:24:46.210Z,101404.50
2018-02-25T17:27:14.629Z,101398.22
2018-02-25T17:29:42.050Z,101407.96
2018-02-25T17:32:09.458Z,101406.33
2018-02-25T17:34:36.886Z,101410.45
2018-02-25T17:37:04.303Z,101410.19
2018-02-25T17:39:31.722Z,101411.20
2018-02-25T17:41:59.174Z,101413.85
2018-02-25T17:44:26.586Z,101418.17
2018-02-25T17:46:54.012Z,101419.38
2018-02-25T17:49:21.505Z,101417.75
2018-02-25T17:51:48.945Z,101416.63
2018-02-25T17:54:16.460Z,101419.17
2018-02-25T17:56:43.902Z,101421.50
2018-02-25T17:59:11.326Z,101420.95
2018-02-25T18:01:38.751Z,101425.80
2018-02-25T18:04:06.216Z,101428.41
2018-02-25T18:06:33.627Z,101428.56
2018-02-25T18:09:01.288Z,101424.61
2018-02-25T18:11:28.868Z,101422.84
2018-02-25T18:13:56.322Z,101426.84
2018-02-25T18:16:23.746Z,101427.03
2018-02-25T18:18:51.176Z,101425.27
2018-02-25T18:21:18.630Z,101426.67
2018-02-25T18:23:46.054Z,101429.06
2018-02-25T18:26:13.514Z,101433.02
2018-02-25T18:28:40.947Z,101437.34
2018-02-25T18:31:08.365Z,101429.16
2018-02-25T18:33:35.789Z,101427.50
2018-02-25T18:36:03.219Z,101423.57
2018-02-25T18:38:30.673Z,101431.00
2018-02-25T18:40:58.112Z,101435.72
2018-02-25T18:43:25.699Z,101432.14
2018-02-25T18:46:12.002Z,101432.95
2018-02-25T18:48:39.451Z,101440.64
2018-02-25T18:51:06.867Z,101443.85
2018-02-25T18:53:34.291Z,101441.05
2018-02-25T18:56:01.786Z,101437.94
2018-02-25T18:58:29.206Z,101437.53
2018-02-25T19:00:57.688Z,101438.98
2018-02-25T19:03:25.120Z,101440.75
2018-02-25T19:05:52.536Z,101438.49
2018-02-25T19:08:20.034Z,101442.65
2018-02-25T19:10:47.465Z,101440.39
2018-02-25T19:13:14.906Z,101449.03
2018-02-25T19:15:42.342Z,101451.16
2018-02-25T19:18:09.822Z,101449.48
2018-02-25T19:20:37.238Z,101444.31
2018-02-25T19:23:04.670Z,101450.39
2018-02-25T19:25:32.091Z,101448.44
2018-02-25T19:27:59.515Z,101455.16
2018-02-25T19:30:26.974Z,101446.50
2018-02-25T19:32:54.395Z,101465.52
2018-02-25T19:35:21.856Z,101462.31
2018-02-25T19:37:54.850Z,101459.75
2018-02-25T19:40:27.930Z,101464.15
2018-02-25T19:42:56.161Z,101467.95
2018-02-25T19:45:23.583Z,101472.31
2018-02-25T19:47:50.998Z,101481.92
2018-02-25T19:50:18.459Z,101480.25
2018-02-25T19:52:45.874Z,101481.72
2018-02-25T19:55:13.294Z,101479.80
2018-02-25T19:57:40.725Z,101481.58
2018-02-25T20:00:08.211Z,101487.45
2018-02-25T20:02:35.630Z,101484.99
2018-02-25T20:05:03.066Z,101488.42
2018-02-25T20:07:30.504Z,101498.98
2018-02-25T20:09:57.924Z,101495.33
2018-02-25T20:12:25.374Z,101496.00
2018-02-25T20:14:52.848Z,101503.63
2018-02-25T20:17:20.258Z,101496.58
2018-02-25T20:19:47.694Z,101496.16
2018-02-25T20:22:15.115Z,101497.55
2018-02-25T20:24:42.550Z,101507.46
2018-02-25T20:27:09.982Z,101502.96
2018-02-25T20:29:37.403Z,101506.66
2018-02-25T20:32:04.823Z,101498.48
2018-02-25T20:34:32.293Z,101502.27
2018-02-25T20:36:59.715Z,101502.62
2018-02-25T20:39:27.129Z,101506.84
2018-02-25T20:41:54.564Z,101494.50
2018-02-25T20:44:21.980Z,101503.41
2018-02-25T20:46:49.386Z,101512.11
2018-02-25T20:49:16.817Z,101504.73
2018-02-25T20:51:44.241Z,101501.66
2018-02-25T20:54:11.642Z,101511.55
2018-02-25T20:56:39.142Z,101506.39
2018-02-25T20:59:06.558Z,101500.22
2018-02-25T21:01:33.976Z,101509.27
2018-02-25T21:04:01.402Z,101504.85
2018-02-25T21:06:28.817Z,101508.37
2018-02-25T21:08:56.232Z,101505.87
2018-02-25T21:11:23.658Z,101510.59
2018-02-25T21:13:51.065Z,101514.17
2018-02-25T21:16:18.482Z,101503.66
2018-02-25T21:18:45.964Z,101505.62
2018-02-25T21:21:13.373Z,101516.14
2018-02-25T21:23:40.794Z,101511.75
2018-02-25T21:26:08.231Z,101514.73
2018-02-25T21:28:35.646Z,101516.27
2018-02-25T21:31:03.070Z,101512.41
2018-02-25T21:33:30.515Z,101524.52
2018-02-25T21:35:57.929Z,101524.10
2018-02-25T21:38:25.346Z,101521.97
2018-02-25T21:40:52.806Z,101530.88
2018-02-25T21:43:20.238Z,101531.39
2018-02-25T21:45:47.650Z,101527.61
2018-02-25T21:48:15.074Z,101531.92
2018-02-25T21:50:42.491Z,101527.64
2018-02-25T21:53:14.827Z,101528.72
2018-02-25T21:55:47.747Z,101528.19
2018-02-25T21:58:20.749Z,101514.54
2018-02-25T22:00:53.846Z,101530.30
2018-02-25T22:03:36.819Z,101527.12
2018-02-25T22:06:04.243Z,101526.69
2018-02-25T22:08:31.654Z,101517.96
2018-02-25T22:10:59.088Z,101523.20
2018-02-25T22:13:26.501Z,101530.76
2018-02-25T22:15:53.922Z,101525.33
2018-02-25T22:18:21.371Z,101533.84
2018-02-25T22:20:48.789Z,101520.64
2018-02-25T22:23:16.211Z,101526.42
2018-02-25T22:25:43.692Z,101527.69
2018-02-25T22:28:11.118Z,101526.05
2018-02-25T22:30:38.554Z,101522.90
2018-02-25T22:33:05.989Z,101519.82
2018-02-25T22:35:33.407Z,101528.97
2018-02-25T22:38:00.822Z,101531.05
2018-02-25T22:40:28.265Z,101536.94
2018-02-25T22:42:55.685Z,101538.70
2018-02-25T22:45:23.101Z,101532.26
2018-02-25T22:47:50.546Z,101536.88
2018-02-25T22:50:17.964Z,101534.63
2018-02-25T22:52:45.377Z,101537.84
2018-02-25T22:55:12.810Z,101537.61
2018-02-25T22:57:40.230Z,101542.47
2018-02-25T23:00:07.662Z,101541.45
2018-02-25T23:02:35.098Z,101539.75
2018-02-25T23:05:02.524Z,101543.64
2018-02-25T23:07:29.937Z,101536.14
2018-02-25T23:09:57.388Z,101550.18
2018-02-25T23:12:24.810Z,101554.70
2018-02-25T23:14:52.227Z,101555.44
2018-02-25T23:17:19.658Z,101560.95
2018-02-25T23:19:47.082Z,101567.09
2018-02-25T23:22:14.498Z,101565.44
2018-02-25T23:24:41.937Z,101562.35
2018-02-25T23:27:09.365Z,101558.42
2018-02-25T23:29:36.779Z,101571.89
2018-02-25T23:32:04.208Z,101553.03
2018-02-25T23:34:31.621Z,101559.02
2018-02-25T23:36:59.037Z,101558.81
2018-02-25T23:39:26.470Z,101561.87
2018-02-25T23:41:53.915Z,101561.11
2018-02-25T23:44:21.334Z,101556.53
2018-02-25T23:46:48.778Z,101557.64
2018-02-25T23:49:16.199Z,101557.46
2018-02-25T23:51:43.614Z,101565.78
2018-02-25T23:54:11.043Z,101570.75
2018-02-25T23:56:38.458Z,101569.51
2018-02-25T23:59:05.882Z,101572.87
